sensor_id;sensor_type;location;lat;lon;timestamp;temperature;humidity
58983;DHT22;44771;49.982;8.560;2023-03-14T00:01:55;9.60;99.90
58983;DHT22;44771;49.982;8.560;2023-03-14T00:06:57;9.60;99.90
58983;DHT22;44771;49.982;8.560;2023-03-14T00:12:03;9.60;99.90
58983;DHT22;44771;49.982;8.560;2023-03-14T00:17:05;9.60;99.90
58983;DHT22;44771;49.982;8.560;2023-03-14T00:22:07;9.60;99.90
58983;DHT22;44771;49.982;8.560;2023-03-14T00:27:11;9.70;99.90
58983;DHT22;44771;49.982;8.560;2023-03-14T00:32:13;9.60;99.90
58983;DHT22;44771;49.982;8.560;2023-03-14T00:37:15;9.60;99.90
58983;DHT22;44771;49.982;8.560;2023-03-14T00:42:19;9.60;99.90
58983;DHT22;44771;49.982;8.560;2023-03-14T00:47:21;9.60;99.90
58983;DHT22;44771;49.982;8.560;2023-03-14T00:52:22;9.60;99.90
58983;DHT22;44771;49.982;8.560;2023-03-14T00:57:25;9.70;99.90
58983;DHT22;44771;49.982;8.560;2023-03-14T01:02:28;9.60;99.90
58983;DHT22;44771;49.982;8.560;2023-03-14T01:07:30;9.60;99.90
58983;DHT22;44771;49.982;8.560;2023-03-14T01:12:33;9.60;99.90
58983;DHT22;44771;49.982;8.560;2023-03-14T01:17:35;9.60;99.90
58983;DHT22;44771;49.982;8.560;2023-03-14T01:22:37;9.70;99.90
58983;DHT22;44771;49.982;8.560;2023-03-14T01:27:41;9.70;99.90
58983;DHT22;44771;49.982;8.560;2023-03-14T01:32:43;9.80;99.90
58983;DHT22;44771;49.982;8.560;2023-03-14T01:37:44;9.80;99.90
58983;DHT22;44771;49.982;8.560;2023-03-14T01:42:54;9.80;99.90
58983;DHT22;44771;49.982;8.560;2023-03-14T01:47:56;9.90;99.90
58983;DHT22;44771;49.982;8.560;2023-03-14T01:52:58;9.90;99.90
58983;DHT22;44771;49.982;8.560;2023-03-14T01:59:13;9.80;99.90
58983;DHT22;44771;49.982;8.560;2023-03-14T02:04:16;9.80;99.90
58983;DHT22;44771;49.982;8.560;2023-03-14T02:09:19;9.80;99.90
58983;DHT22;44771;49.982;8.560;2023-03-14T02:14:29;9.80;99.90
58983;DHT22;44771;49.982;8.560;2023-03-14T02:19:41;9.90;99.90
58983;DHT22;44771;49.982;8.560;2023-03-14T02:24:51;9.90;99.90
58983;DHT22;44771;49.982;8.560;2023-03-14T02:30:03;10.00;99.90
58983;DHT22;44771;49.982;8.560;2023-03-14T02:35:08;9.90;99.90
58983;DHT22;44771;49.982;8.560;2023-03-14T02:40:11;9.90;99.90
58983;DHT22;44771;49.982;8.560;2023-03-14T02:45:39;9.90;99.90
58983;DHT22;44771;49.982;8.560;2023-03-14T02:50:42;9.90;99.90
58983;DHT22;44771;49.982;8.560;2023-03-14T02:55:45;9.90;99.90
58983;DHT22;44771;49.982;8.560;2023-03-14T03:00:49;9.80;99.90
58983;DHT22;44771;49.982;8.560;2023-03-14T03:05:52;9.70;99.90
58983;DHT22;44771;49.982;8.560;2023-03-14T03:10:56;9.80;99.90
58983;DHT22;44771;49.982;8.560;2023-03-14T03:15:59;9.80;99.90
58983;DHT22;44771;49.982;8.560;2023-03-14T03:21:02;9.80;99.90
58983;DHT22;44771;49.982;8.560;2023-03-14T03:26:05;9.80;99.90
58983;DHT22;44771;49.982;8.560;2023-03-14T03:31:10;9.80;99.90
58983;DHT22;44771;49.982;8.560;2023-03-14T03:36:12;9.80;99.90
58983;DHT22;44771;49.982;8.560;2023-03-14T03:41:14;9.80;99.90
58983;DHT22;44771;49.982;8.560;2023-03-14T03:46:17;9.70;99.90
58983;DHT22;44771;49.982;8.560;2023-03-14T03:51:19;9.70;99.90
58983;DHT22;44771;49.982;8.560;2023-03-14T03:56:20;9.80;99.90
58983;DHT22;44771;49.982;8.560;2023-03-14T04:01:24;9.80;99.90
58983;DHT22;44771;49.982;8.560;2023-03-14T04:06:25;9.80;99.90
58983;DHT22;44771;49.982;8.560;2023-03-14T04:11:27;9.80;99.90
58983;DHT22;44771;49.982;8.560;2023-03-14T04:16:31;9.80;99.90
58983;DHT22;44771;49.982;8.560;2023-03-14T04:21:32;9.80;99.90
58983;DHT22;44771;49.982;8.560;2023-03-14T04:26:34;9.90;99.90
58983;DHT22;44771;49.982;8.560;2023-03-14T04:31:37;9.90;99.90
58983;DHT22;44771;49.982;8.560;2023-03-14T04:36:39;9.90;99.90
58983;DHT22;44771;49.982;8.560;2023-03-14T04:41:41;10.00;99.90
58983;DHT22;44771;49.982;8.560;2023-03-14T04:46:44;10.00;99.90
58983;DHT22;44771;49.982;8.560;2023-03-14T04:51:46;10.10;99.90
58983;DHT22;44771;49.982;8.560;2023-03-14T04:56:48;10.00;99.90
58983;DHT22;44771;49.982;8.560;2023-03-14T05:01:51;10.00;99.90
58983;DHT22;44771;49.982;8.560;2023-03-14T05:06:53;10.00;99.90
58983;DHT22;44771;49.982;8.560;2023-03-14T05:11:55;10.00;99.90
58983;DHT22;44771;49.982;8.560;2023-03-14T05:16:58;9.90;99.90
58983;DHT22;44771;49.982;8.560;2023-03-14T05:22:00;9.90;99.90
58983;DHT22;44771;49.982;8.560;2023-03-14T05:27:02;10.00;99.90
58983;DHT22;44771;49.982;8.560;2023-03-14T05:32:05;10.00;99.90
58983;DHT22;44771;49.982;8.560;2023-03-14T05:37:07;10.00;99.90
58983;DHT22;44771;49.982;8.560;2023-03-14T05:42:09;10.00;99.90
58983;DHT22;44771;49.982;8.560;2023-03-14T05:47:12;10.00;99.90
58983;DHT22;44771;49.982;8.560;2023-03-14T05:52:14;10.00;99.90
58983;DHT22;44771;49.982;8.560;2023-03-14T05:57:16;10.00;99.90
58983;DHT22;44771;49.982;8.560;2023-03-14T06:02:19;10.00;99.90
58983;DHT22;44771;49.982;8.560;2023-03-14T06:07:21;9.90;99.90
58983;DHT22;44771;49.982;8.560;2023-03-14T06:12:23;9.90;99.90
58983;DHT22;44771;49.982;8.560;2023-03-14T06:17:26;10.00;99.90
58983;DHT22;44771;49.982;8.560;2023-03-14T06:22:27;10.00;99.90
58983;DHT22;44771;49.982;8.560;2023-03-14T06:27:29;10.00;99.90
58983;DHT22;44771;49.982;8.560;2023-03-14T06:32:32;10.00;99.90
58983;DHT22;44771;49.982;8.560;2023-03-14T06:37:34;10.10;99.90
58983;DHT22;44771;49.982;8.560;2023-03-14T06:42:36;10.10;99.90
58983;DHT22;44771;49.982;8.560;2023-03-14T06:47:39;10.20;99.90
58983;DHT22;44771;49.982;8.560;2023-03-14T06:52:41;10.20;99.90
58983;DHT22;44771;49.982;8.560;2023-03-14T06:57:43;10.30;99.90
58983;DHT22;44771;49.982;8.560;2023-03-14T07:02:46;10.20;99.90
58983;DHT22;44771;49.982;8.560;2023-03-14T07:07:48;10.20;99.90
58983;DHT22;44771;49.982;8.560;2023-03-14T07:12:50;10.30;99.90
58983;DHT22;44771;49.982;8.560;2023-03-14T07:17:53;10.30;99.90
58983;DHT22;44771;49.982;8.560;2023-03-14T07:22:55;10.40;99.90
58983;DHT22;44771;49.982;8.560;2023-03-14T07:27:57;10.40;99.90
58983;DHT22;44771;49.982;8.560;2023-03-14T07:33:00;10.40;99.90
58983;DHT22;44771;49.982;8.560;2023-03-14T07:38:02;10.40;99.90
58983;DHT22;44771;49.982;8.560;2023-03-14T07:43:03;10.40;99.90
58983;DHT22;44771;49.982;8.560;2023-03-14T07:48:07;10.40;99.90
58983;DHT22;44771;49.982;8.560;2023-03-14T07:53:09;10.40;99.90
58983;DHT22;44771;49.982;8.560;2023-03-14T07:58:11;10.40;99.90
58983;DHT22;44771;49.982;8.560;2023-03-14T08:03:14;10.50;99.90
58983;DHT22;44771;49.982;8.560;2023-03-14T08:08:16;10.50;99.90
58983;DHT22;44771;49.982;8.560;2023-03-14T08:13:18;10.50;99.90
58983;DHT22;44771;49.982;8.560;2023-03-14T08:18:21;10.50;99.90
58983;DHT22;44771;49.982;8.560;2023-03-14T08:23:23;10.60;99.90
58983;DHT22;44771;49.982;8.560;2023-03-14T08:28:25;10.70;99.90
58983;DHT22;44771;49.982;8.560;2023-03-14T08:33:29;10.90;99.90
58983;DHT22;44771;49.982;8.560;2023-03-14T08:38:31;10.90;99.90
58983;DHT22;44771;49.982;8.560;2023-03-14T08:43:33;11.10;99.90
58983;DHT22;44771;49.982;8.560;2023-03-14T08:48:36;11.40;99.90
58983;DHT22;44771;49.982;8.560;2023-03-14T08:53:38;11.80;99.90
58983;DHT22;44771;49.982;8.560;2023-03-14T08:58:40;12.10;99.90
58983;DHT22;44771;49.982;8.560;2023-03-14T09:03:43;12.40;99.90
58983;DHT22;44771;49.982;8.560;2023-03-14T09:08:45;12.60;99.90
58983;DHT22;44771;49.982;8.560;2023-03-14T09:13:47;12.60;99.90
58983;DHT22;44771;49.982;8.560;2023-03-14T09:18:50;12.90;99.90
58983;DHT22;44771;49.982;8.560;2023-03-14T09:23:52;12.80;99.90
58983;DHT22;44771;49.982;8.560;2023-03-14T09:28:54;12.30;99.90
58983;DHT22;44771;49.982;8.560;2023-03-14T09:34:00;12.20;99.90
58983;DHT22;44771;49.982;8.560;2023-03-14T09:39:02;12.40;99.90
58983;DHT22;44771;49.982;8.560;2023-03-14T09:44:08;12.50;99.90
58983;DHT22;44771;49.982;8.560;2023-03-14T09:49:18;12.40;99.90
58983;DHT22;44771;49.982;8.560;2023-03-14T09:54:30;12.20;99.90
58983;DHT22;44771;49.982;8.560;2023-03-14T09:59:33;12.30;99.90
58983;DHT22;44771;49.982;8.560;2023-03-14T10:04:38;12.40;99.90
58983;DHT22;44771;49.982;8.560;2023-03-14T10:09:43;12.40;99.90
58983;DHT22;44771;49.982;8.560;2023-03-14T10:14:47;12.30;99.90
58983;DHT22;44771;49.982;8.560;2023-03-14T10:19:55;12.10;99.90
58983;DHT22;44771;49.982;8.560;2023-03-14T10:25:04;12.10;99.90
58983;DHT22;44771;49.982;8.560;2023-03-14T10:30:14;12.00;99.90
58983;DHT22;44771;49.982;8.560;2023-03-14T10:35:34;11.90;99.90
58983;DHT22;44771;49.982;8.560;2023-03-14T10:40:39;11.90;99.90
58983;DHT22;44771;49.982;8.560;2023-03-14T10:45:42;11.70;99.90
58983;DHT22;44771;49.982;8.560;2023-03-14T10:50:56;11.50;99.90
58983;DHT22;44771;49.982;8.560;2023-03-14T10:56:02;11.30;99.90
58983;DHT22;44771;49.982;8.560;2023-03-14T11:01:16;11.30;99.90
58983;DHT22;44771;49.982;8.560;2023-03-14T11:06:25;11.40;99.90
58983;DHT22;44771;49.982;8.560;2023-03-14T11:11:29;11.50;99.90
58983;DHT22;44771;49.982;8.560;2023-03-14T11:16:37;11.50;99.90
58983;DHT22;44771;49.982;8.560;2023-03-14T11:21:48;11.50;99.90
58983;DHT22;44771;49.982;8.560;2023-03-14T11:26:57;11.60;99.90
58983;DHT22;44771;49.982;8.560;2023-03-14T11:32:02;11.60;99.90
58983;DHT22;44771;49.982;8.560;2023-03-14T11:37:11;11.60;99.90
58983;DHT22;44771;49.982;8.560;2023-03-14T11:42:16;11.60;99.90
58983;DHT22;44771;49.982;8.560;2023-03-14T11:47:24;11.60;99.90
58983;DHT22;44771;49.982;8.560;2023-03-14T11:52:32;11.70;99.90
58983;DHT22;44771;49.982;8.560;2023-03-14T11:57:35;11.70;99.90
58983;DHT22;44771;49.982;8.560;2023-03-14T12:02:45;11.70;99.90
58983;DHT22;44771;49.982;8.560;2023-03-14T12:08:15;11.30;99.90
58983;DHT22;44771;49.982;8.560;2023-03-14T12:13:21;10.80;99.90
58983;DHT22;44771;49.982;8.560;2023-03-14T12:18:27;10.60;99.90
58983;DHT22;44771;49.982;8.560;2023-03-14T12:23:37;10.00;99.90
58983;DHT22;44771;49.982;8.560;2023-03-14T12:28:44;9.60;99.90
58983;DHT22;44771;49.982;8.560;2023-03-14T12:33:46;9.60;99.90
58983;DHT22;44771;49.982;8.560;2023-03-14T12:39:05;9.70;99.90
58983;DHT22;44771;49.982;8.560;2023-03-14T12:44:43;9.70;99.90
58983;DHT22;44771;49.982;8.560;2023-03-14T12:49:47;10.00;99.90
58983;DHT22;44771;49.982;8.560;2023-03-14T12:54:56;10.20;99.90
58983;DHT22;44771;49.982;8.560;2023-03-14T13:00:00;10.40;99.90
58983;DHT22;44771;49.982;8.560;2023-03-14T13:05:04;10.60;99.90
58983;DHT22;44771;49.982;8.560;2023-03-14T13:10:21;10.40;99.90
58983;DHT22;44771;49.982;8.560;2023-03-14T13:15:27;10.30;99.90
58983;DHT22;44771;49.982;8.560;2023-03-14T13:20:34;10.30;99.90
58983;DHT22;44771;49.982;8.560;2023-03-14T13:25:38;10.20;99.90
58983;DHT22;44771;49.982;8.560;2023-03-14T13:30:41;9.30;99.90
58983;DHT22;44771;49.982;8.560;2023-03-14T13:35:46;8.50;99.90
58983;DHT22;44771;49.982;8.560;2023-03-14T13:40:51;7.90;99.90
58983;DHT22;44771;49.982;8.560;2023-03-14T13:45:55;7.60;99.90
58983;DHT22;44771;49.982;8.560;2023-03-14T13:51:00;8.00;99.90
58983;DHT22;44771;49.982;8.560;2023-03-14T13:56:08;8.10;99.90
58983;DHT22;44771;49.982;8.560;2023-03-14T14:01:14;8.30;99.90
58983;DHT22;44771;49.982;8.560;2023-03-14T14:06:25;8.30;99.90
58983;DHT22;44771;49.982;8.560;2023-03-14T14:11:37;8.60;99.90
58983;DHT22;44771;49.982;8.560;2023-03-14T14:16:54;8.90;99.90
58983;DHT22;44771;49.982;8.560;2023-03-14T14:21:57;9.10;99.90
58983;DHT22;44771;49.982;8.560;2023-03-14T14:27:12;9.30;99.90
58983;DHT22;44771;49.982;8.560;2023-03-14T14:32:15;9.40;99.90
58983;DHT22;44771;49.982;8.560;2023-03-14T14:37:23;9.10;99.90
58983;DHT22;44771;49.982;8.560;2023-03-14T14:42:40;8.80;99.90
58983;DHT22;44771;49.982;8.560;2023-03-14T14:47:49;8.40;99.90
58983;DHT22;44771;49.982;8.560;2023-03-14T14:53:22;7.90;99.90
58983;DHT22;44771;49.982;8.560;2023-03-14T14:58:50;7.40;99.90
58983;DHT22;44771;49.982;8.560;2023-03-14T15:03:52;7.00;99.90
58983;DHT22;44771;49.982;8.560;2023-03-14T15:08:55;6.50;99.90
58983;DHT22;44771;49.982;8.560;2023-03-14T15:13:58;6.10;99.90
58983;DHT22;44771;49.982;8.560;2023-03-14T15:19:01;6.10;99.90
58983;DHT22;44771;49.982;8.560;2023-03-14T15:24:15;6.20;99.90
58983;DHT22;44771;49.982;8.560;2023-03-14T15:29:18;6.30;99.90
58983;DHT22;44771;49.982;8.560;2023-03-14T15:34:20;6.20;99.90
58983;DHT22;44771;49.982;8.560;2023-03-14T15:39:22;6.20;99.90
58983;DHT22;44771;49.982;8.560;2023-03-14T15:44:25;6.30;99.90
58983;DHT22;44771;49.982;8.560;2023-03-14T15:49:27;6.20;99.90
58983;DHT22;44771;49.982;8.560;2023-03-14T15:54:29;6.50;99.90
58983;DHT22;44771;49.982;8.560;2023-03-14T15:59:33;6.60;99.90
58983;DHT22;44771;49.982;8.560;2023-03-14T16:04:35;6.50;99.90
58983;DHT22;44771;49.982;8.560;2023-03-14T16:09:37;6.30;99.90
58983;DHT22;44771;49.982;8.560;2023-03-14T16:14:40;6.20;99.90
58983;DHT22;44771;49.982;8.560;2023-03-14T16:19:42;6.10;99.90
58983;DHT22;44771;49.982;8.560;2023-03-14T16:24:44;6.00;99.90
58983;DHT22;44771;49.982;8.560;2023-03-14T16:29:47;6.00;99.90
58983;DHT22;44771;49.982;8.560;2023-03-14T16:34:56;5.70;99.90
58983;DHT22;44771;49.982;8.560;2023-03-14T16:39:58;5.60;99.90
58983;DHT22;44771;49.982;8.560;2023-03-14T16:45:15;5.60;99.90
58983;DHT22;44771;49.982;8.560;2023-03-14T16:50:16;5.60;99.90
58983;DHT22;44771;49.982;8.560;2023-03-14T16:55:21;5.60;99.90
58983;DHT22;44771;49.982;8.560;2023-03-14T17:00:34;5.60;99.90
58983;DHT22;44771;49.982;8.560;2023-03-14T17:05:36;5.60;99.90
58983;DHT22;44771;49.982;8.560;2023-03-14T17:10:38;5.60;99.90
58983;DHT22;44771;49.982;8.560;2023-03-14T17:15:45;5.60;99.90
58983;DHT22;44771;49.982;8.560;2023-03-14T17:20:50;5.30;99.90
58983;DHT22;44771;49.982;8.560;2023-03-14T17:25:52;5.10;99.90
58983;DHT22;44771;49.982;8.560;2023-03-14T17:31:04;4.90;99.90
58983;DHT22;44771;49.982;8.560;2023-03-14T17:36:06;4.90;99.90
58983;DHT22;44771;49.982;8.560;2023-03-14T17:41:10;4.80;99.90
58983;DHT22;44771;49.982;8.560;2023-03-14T17:46:14;4.70;99.90
58983;DHT22;44771;49.982;8.560;2023-03-14T17:56:47;4.50;99.90
58983;DHT22;44771;49.982;8.560;2023-03-14T18:01:51;4.40;99.90
58983;DHT22;44771;49.982;8.560;2023-03-14T18:06:53;4.30;99.90
58983;DHT22;44771;49.982;8.560;2023-03-14T18:11:55;4.30;99.90
58983;DHT22;44771;49.982;8.560;2023-03-14T18:17:10;4.20;99.90
58983;DHT22;44771;49.982;8.560;2023-03-14T18:22:12;4.10;99.90
58983;DHT22;44771;49.982;8.560;2023-03-14T18:27:24;4.00;99.90
58983;DHT22;44771;49.982;8.560;2023-03-14T18:32:27;3.60;99.90
58983;DHT22;44771;49.982;8.560;2023-03-14T18:37:29;3.40;99.90
58983;DHT22;44771;49.982;8.560;2023-03-14T18:42:31;3.20;99.90
58983;DHT22;44771;49.982;8.560;2023-03-14T18:47:34;3.10;99.90
58983;DHT22;44771;49.982;8.560;2023-03-14T18:52:36;3.00;99.90
58983;DHT22;44771;49.982;8.560;2023-03-14T18:57:37;3.00;99.90
58983;DHT22;44771;49.982;8.560;2023-03-14T19:02:40;3.00;99.90
58983;DHT22;44771;49.982;8.560;2023-03-14T19:07:42;3.10;99.90
58983;DHT22;44771;49.982;8.560;2023-03-14T19:12:46;3.00;99.90
58983;DHT22;44771;49.982;8.560;2023-03-14T19:17:49;3.20;99.90
58983;DHT22;44771;49.982;8.560;2023-03-14T19:22:51;3.30;99.90
58983;DHT22;44771;49.982;8.560;2023-03-14T19:27:53;3.40;99.90
58983;DHT22;44771;49.982;8.560;2023-03-14T19:32:56;3.40;99.90
58983;DHT22;44771;49.982;8.560;2023-03-14T19:37:58;3.30;99.90
58983;DHT22;44771;49.982;8.560;2023-03-14T19:42:59;3.40;99.90
58983;DHT22;44771;49.982;8.560;2023-03-14T19:48:05;3.30;99.90
58983;DHT22;44771;49.982;8.560;2023-03-14T19:53:07;3.50;99.90
58983;DHT22;44771;49.982;8.560;2023-03-14T19:58:08;3.60;99.90
58983;DHT22;44771;49.982;8.560;2023-03-14T20:03:11;3.60;99.90
58983;DHT22;44771;49.982;8.560;2023-03-14T20:08:13;3.60;99.90
58983;DHT22;44771;49.982;8.560;2023-03-14T20:13:15;3.50;99.90
58983;DHT22;44771;49.982;8.560;2023-03-14T20:18:24;3.50;99.90
58983;DHT22;44771;49.982;8.560;2023-03-14T20:23:26;3.50;99.90
58983;DHT22;44771;49.982;8.560;2023-03-14T20:28:32;3.50;99.90
58983;DHT22;44771;49.982;8.560;2023-03-14T20:33:35;3.60;99.90
58983;DHT22;44771;49.982;8.560;2023-03-14T20:38:37;3.60;99.90
58983;DHT22;44771;49.982;8.560;2023-03-14T20:43:38;3.60;99.90
58983;DHT22;44771;49.982;8.560;2023-03-14T20:48:42;3.60;99.90
58983;DHT22;44771;49.982;8.560;2023-03-14T20:53:44;3.50;99.90
58983;DHT22;44771;49.982;8.560;2023-03-14T20:58:45;3.50;99.90
58983;DHT22;44771;49.982;8.560;2023-03-14T21:03:48;3.40;99.90
58983;DHT22;44771;49.982;8.560;2023-03-14T21:08:50;3.50;99.90
58983;DHT22;44771;49.982;8.560;2023-03-14T21:13:52;3.50;99.90
58983;DHT22;44771;49.982;8.560;2023-03-14T21:18:55;3.50;99.90
58983;DHT22;44771;49.982;8.560;2023-03-14T21:23:57;3.30;99.90
58983;DHT22;44771;49.982;8.560;2023-03-14T21:28:59;3.20;99.90
58983;DHT22;44771;49.982;8.560;2023-03-14T21:34:02;3.10;99.90
58983;DHT22;44771;49.982;8.560;2023-03-14T21:39:03;3.10;99.90
58983;DHT22;44771;49.982;8.560;2023-03-14T21:44:05;3.10;99.90
58983;DHT22;44771;49.982;8.560;2023-03-14T21:49:08;3.10;99.90
58983;DHT22;44771;49.982;8.560;2023-03-14T21:54:10;3.10;99.90
58983;DHT22;44771;49.982;8.560;2023-03-14T21:59:12;3.20;99.90
58983;DHT22;44771;49.982;8.560;2023-03-14T22:04:15;3.30;99.90
58983;DHT22;44771;49.982;8.560;2023-03-14T22:09:17;3.20;99.90
58983;DHT22;44771;49.982;8.560;2023-03-14T22:14:19;3.10;99.90
58983;DHT22;44771;49.982;8.560;2023-03-14T22:19:22;3.20;99.90
58983;DHT22;44771;49.982;8.560;2023-03-14T22:24:24;3.10;99.90
58983;DHT22;44771;49.982;8.560;2023-03-14T22:29:26;3.10;99.90
58983;DHT22;44771;49.982;8.560;2023-03-14T22:34:29;3.10;99.90
58983;DHT22;44771;49.982;8.560;2023-03-14T22:39:32;3.20;99.90
58983;DHT22;44771;49.982;8.560;2023-03-14T22:44:34;3.20;99.90
58983;DHT22;44771;49.982;8.560;2023-03-14T22:49:37;3.40;99.90
58983;DHT22;44771;49.982;8.560;2023-03-14T22:54:39;3.30;99.90
58983;DHT22;44771;49.982;8.560;2023-03-14T22:59:41;3.20;99.90
58983;DHT22;44771;49.982;8.560;2023-03-14T23:04:44;3.30;99.90
58983;DHT22;44771;49.982;8.560;2023-03-14T23:09:45;3.10;99.90
58983;DHT22;44771;49.982;8.560;2023-03-14T23:14:47;3.10;99.90
58983;DHT22;44771;49.982;8.560;2023-03-14T23:19:50;2.90;99.90
58983;DHT22;44771;49.982;8.560;2023-03-14T23:24:52;2.80;99.90
58983;DHT22;44771;49.982;8.560;2023-03-14T23:29:54;2.80;99.90
58983;DHT22;44771;49.982;8.560;2023-03-14T23:34:57;2.70;99.90
58983;DHT22;44771;49.982;8.560;2023-03-14T23:39:59;2.60;99.90
58983;DHT22;44771;49.982;8.560;2023-03-14T23:45:01;2.40;99.90
58983;DHT22;44771;49.982;8.560;2023-03-14T23:50:04;2.40;99.90
58983;DHT22;44771;49.982;8.560;2023-03-14T23:55:07;2.30;99.90
